Time;durP1;ratioP1;P1;durP2;ratioP2;P2;SDS_P1;SDS_P2;PMS_P1;PMS_P2;Temp;Humidity;BMP_temperature;BMP_pressure;BME280_temperature;BME280_humidity;BME280_pressure;Samples;Min_cycle;Max_cycle;Signal;HPM_P1;HPM_P2
2023/08/31 00:00:55;;;;;;;2.97;2.43;;;20.10;86.70;;;;;;5081671;28;20664;-73
2023/08/31 00:03:22;;;;;;;2.80;2.00;;;20.10;86.90;;;;;;5083706;28;20201;-72
2023/08/31 00:05:51;;;;;;;4.63;2.47;;;20.20;86.70;;;;;;5082493;28;20265;-73
2023/08/31 00:08:18;;;;;;;2.50;2.30;;;20.10;86.70;;;;;;5072949;28;20324;-73
2023/08/31 00:10:45;;;;;;;4.40;2.20;;;20.10;86.80;;;;;;5079298;28;20211;-73
2023/08/31 00:13:12;;;;;;;2.83;2.37;;;20.20;87.10;;;;;;5072404;28;20216;-72
2023/08/31 00:15:40;;;;;;;2.73;2.20;;;20.20;87.10;;;;;;5074930;28;20208;-73
2023/08/31 00:18:07;;;;;;;3.53;2.23;;;20.10;86.90;;;;;;5086191;28;20221;-73
2023/08/31 00:20:34;;;;;;;2.50;2.20;;;20.10;87.10;;;;;;5082449;28;20201;-73
2023/08/31 00:23:03;;;;;;;3.53;2.57;;;20.00;87.00;;;;;;5080984;28;20209;-73
2023/08/31 00:25:31;;;;;;;2.93;2.63;;;20.10;87.30;;;;;;5085839;28;20232;-73
2023/08/31 00:28:04;;;;;;;2.30;2.10;;;20.10;87.30;;;;;;5080240;28;20202;-73
2023/08/31 00:30:31;;;;;;;3.43;2.40;;;20.10;87.10;;;;;;5072669;28;20215;-73
2023/08/31 00:32:59;;;;;;;2.50;2.30;;;20.10;87.20;;;;;;5085562;28;20197;-73
2023/08/31 00:35:26;;;;;;;2.77;2.20;;;20.10;87.50;;;;;;5085647;28;20253;-72
2023/08/31 00:37:55;;;;;;;3.67;3.27;;;20.10;87.50;;;;;;5084485;28;20665;-72
2023/08/31 00:40:23;;;;;;;3.13;2.40;;;20.00;87.30;;;;;;5072628;28;20565;-72
2023/08/31 00:42:51;;;;;;;3.27;2.40;;;20.00;87.40;;;;;;5073210;28;20298;-73
2023/08/31 00:45:19;;;;;;;2.73;2.17;;;20.00;87.50;;;;;;5071659;28;20675;-72
2023/08/31 00:47:47;;;;;;;3.20;2.40;;;20.00;87.60;;;;;;5087366;28;20691;-73
2023/08/31 00:50:14;;;;;;;2.27;2.07;;;20.00;87.60;;;;;;5076801;28;20208;-73
2023/08/31 00:52:44;;;;;;;4.20;2.40;;;19.90;87.60;;;;;;5075916;28;20208;-73
2023/08/31 00:55:11;;;;;;;3.23;2.27;;;19.90;87.70;;;;;;5072135;28;20630;-74
2023/08/31 00:57:40;;;;;;;2.47;2.27;;;19.90;87.70;;;;;;5078574;28;20235;-73
2023/08/31 01:00:10;;;;;;;3.20;2.53;;;19.80;87.90;;;;;;5085965;28;20196;-73
2023/08/31 01:02:43;;;;;;;4.53;2.33;;;19.80;87.80;;;;;;5086569;28;20679;-73
2023/08/31 01:05:16;;;;;;;3.10;2.20;;;19.80;87.90;;;;;;5064905;28;20605;-73
2023/08/31 01:07:52;;;;;;;4.03;2.80;;;19.70;87.90;;;;;;5082844;28;20201;-71
2023/08/31 01:10:25;;;;;;;3.13;2.73;;;19.60;87.80;;;;;;5072492;28;20291;-73
2023/08/31 01:13:00;;;;;;;2.93;2.40;;;19.60;87.90;;;;;;5083437;28;20194;-74
2023/08/31 01:15:29;;;;;;;3.93;2.70;;;19.60;88.20;;;;;;5077865;28;20564;-73
2023/08/31 01:17:58;;;;;;;3.00;2.80;;;19.50;89.00;;;;;;5078924;28;20292;-73
2023/08/31 01:20:32;;;;;;;3.17;2.70;;;19.50;88.30;;;;;;5085347;28;20216;-72
2023/08/31 01:23:04;;;;;;;3.50;2.50;;;19.50;88.60;;;;;;5077032;28;20199;-72
2023/08/31 01:25:33;;;;;;;3.17;2.70;;;19.50;88.40;;;;;;5089767;28;20269;-73
2023/08/31 01:28:00;;;;;;;3.90;2.57;;;19.50;88.30;;;;;;5090411;28;20212;-72
2023/08/31 01:30:30;;;;;;;5.63;2.60;;;19.60;88.20;;;;;;5089961;28;20469;-72
2023/08/31 01:32:57;;;;;;;4.13;2.80;;;19.60;88.00;;;;;;5086797;28;20288;-72
2023/08/31 01:35:26;;;;;;;3.00;2.70;;;19.50;87.80;;;;;;5089032;28;20228;-71
2023/08/31 01:37:57;;;;;;;4.00;2.73;;;19.50;88.00;;;;;;5089984;28;20209;-72
2023/08/31 01:40:33;;;;;;;4.33;2.50;;;19.50;87.80;;;;;;5088739;28;20612;-72
2023/08/31 01:43:03;;;;;;;3.23;2.30;;;19.50;87.70;;;;;;5076533;28;20508;-72
2023/08/31 01:45:32;;;;;;;3.40;2.70;;;19.60;87.80;;;;;;5070213;28;20369;-73
2023/08/31 01:47:59;;;;;;;4.63;2.70;;;19.50;87.70;;;;;;5073223;28;20204;-72
2023/08/31 01:50:26;;;;;;;2.90;2.60;;;19.50;87.70;;;;;;5069914;28;20241;-72
2023/08/31 01:52:53;;;;;;;5.10;2.53;;;19.50;88.00;;;;;;5035057;28;20470;-72
2023/08/31 01:55:21;;;;;;;4.70;3.17;;;19.40;88.00;;;;;;5073897;28;20228;-71
2023/08/31 01:57:48;;;;;;;3.63;2.30;;;19.40;87.90;;;;;;5073456;28;20255;-73
2023/08/31 02:00:18;;;;;;;3.13;2.50;;;19.40;87.80;;;;;;5079393;28;20237;-72
2023/08/31 02:02:45;;;;;;;2.60;2.40;;;19.50;87.90;;;;;;5079938;28;20829;-71
2023/08/31 02:05:12;;;;;;;3.27;2.43;;;19.50;87.90;;;;;;5082483;28;20295;-73
2023/08/31 02:07:40;;;;;;;3.47;2.67;;;19.50;87.80;;;;;;5075228;28;20232;-73
2023/08/31 02:10:07;;;;;;;5.17;2.80;;;19.50;88.40;;;;;;5077573;28;20270;-72
2023/08/31 02:12:35;;;;;;;2.97;2.60;;;19.50;87.70;;;;;;5080246;28;20688;-72
2023/08/31 02:15:04;;;;;;;3.73;2.50;;;19.40;87.60;;;;;;5080528;28;20216;-72
2023/08/31 02:17:32;;;;;;;3.60;2.90;;;19.40;87.70;;;;;;5073877;28;20316;-71
2023/08/31 02:19:59;;;;;;;2.93;2.63;;;19.50;88.00;;;;;;5077785;28;20554;-73
2023/08/31 02:22:25;;;;;;;4.37;2.93;;;19.50;88.00;;;;;;5076752;28;21019;-72
2023/08/31 02:24:53;;;;;;;4.80;2.90;;;19.50;87.90;;;;;;5083261;28;20394;-72
2023/08/31 02:27:20;;;;;;;3.33;2.80;;;19.50;87.80;;;;;;5069690;28;20258;-72
2023/08/31 02:29:46;;;;;;;2.93;2.60;;;19.50;87.80;;;;;;5069286;28;20679;-71
2023/08/31 02:32:13;;;;;;;3.23;2.50;;;19.50;88.00;;;;;;5085673;28;20206;-72
2023/08/31 02:34:41;;;;;;;4.73;2.63;;;19.50;88.00;;;;;;5077805;28;20225;-72
2023/08/31 02:37:08;;;;;;;3.80;2.70;;;19.50;87.90;;;;;;5070657;28;20815;-72
2023/08/31 02:39:35;;;;;;;3.20;2.60;;;19.50;87.80;;;;;;5074644;28;20209;-72
2023/08/31 02:42:02;;;;;;;4.37;2.77;;;19.60;87.80;;;;;;5081592;28;20192;-72
2023/08/31 02:44:28;;;;;;;2.50;2.30;;;19.50;87.60;;;;;;5070850;28;20212;-72
2023/08/31 02:46:55;;;;;;;3.47;2.73;;;19.50;87.60;;;;;;5069066;28;20212;-72
2023/08/31 02:49:22;;;;;;;5.33;2.80;;;19.40;87.60;;;;;;5070622;28;20227;-72
2023/08/31 02:51:50;;;;;;;4.30;2.57;;;19.40;87.60;;;;;;5070499;28;20219;-73
2023/08/31 02:54:19;;;;;;;3.30;2.77;;;19.40;87.80;;;;;;5072518;28;20760;-72
2023/08/31 02:56:46;;;;;;;3.83;2.77;;;19.30;87.80;;;;;;5080966;28;20267;-72
2023/08/31 02:59:13;;;;;;;3.30;2.57;;;19.40;88.00;;;;;;5084770;28;20219;-72
2023/08/31 03:01:40;;;;;;;3.60;2.87;;;19.30;87.90;;;;;;5077295;28;20204;-72
2023/08/31 03:04:07;;;;;;;3.70;2.77;;;19.30;87.90;;;;;;5079757;28;20210;-73
2023/08/31 03:06:34;;;;;;;4.90;2.90;;;19.30;88.00;;;;;;5076621;28;20355;-72
2023/08/31 03:09:03;;;;;;;3.23;2.87;;;19.30;88.00;;;;;;5070063;28;20255;-72
2023/08/31 03:11:31;;;;;;;3.43;2.90;;;19.30;88.10;;;;;;5084000;28;20450;-72
2023/08/31 03:13:58;;;;;;;3.20;2.87;;;19.30;88.10;;;;;;5077780;28;20220;-73
2023/08/31 03:16:25;;;;;;;4.13;2.57;;;19.20;87.80;;;;;;5076041;28;20819;-72
2023/08/31 03:18:52;;;;;;;5.03;2.77;;;19.30;88.10;;;;;;5087947;28;20469;-72
2023/08/31 03:21:19;;;;;;;3.77;2.53;;;19.30;88.00;;;;;;5082840;28;20197;-72
2023/08/31 03:23:46;;;;;;;5.33;2.93;;;19.30;87.90;;;;;;5078570;28;20482;-72
2023/08/31 03:26:15;;;;;;;3.80;2.63;;;19.30;87.80;;;;;;5085290;28;20599;-72
2023/08/31 03:28:41;;;;;;;3.40;2.77;;;19.30;87.70;;;;;;5072269;28;20223;-71
2023/08/31 03:31:08;;;;;;;2.73;2.50;;;19.30;87.70;;;;;;5075432;28;20196;-72
2023/08/31 03:33:35;;;;;;;4.70;3.10;;;19.40;87.90;;;;;;5082469;28;20200;-72
2023/08/31 03:36:04;;;;;;;3.70;3.00;;;19.30;87.90;;;;;;5088745;28;20618;-72
2023/08/31 03:38:31;;;;;;;3.57;3.00;;;19.30;88.00;;;;;;5072811;28;20241;-72
2023/08/31 03:40:58;;;;;;;3.50;2.77;;;19.20;87.90;;;;;;5083482;28;20210;-71
2023/08/31 03:43:26;;;;;;;4.43;2.80;;;19.20;88.00;;;;;;5075467;28;20590;-71
2023/08/31 03:45:56;;;;;;;3.30;2.63;;;19.20;88.00;;;;;;5068440;28;20575;-71
2023/08/31 03:48:23;;;;;;;3.97;2.80;;;19.20;88.00;;;;;;5075324;28;20485;-73
2023/08/31 03:50:51;;;;;;;4.07;2.80;;;19.20;87.90;;;;;;5071537;28;20208;-72
2023/08/31 03:53:18;;;;;;;3.23;2.43;;;19.20;88.10;;;;;;5078861;28;20201;-73
2023/08/31 03:55:45;;;;;;;2.77;2.57;;;19.20;88.10;;;;;;5070275;28;20308;-72
2023/08/31 03:58:11;;;;;;;4.43;2.70;;;19.30;87.90;;;;;;5065113;28;20602;-72
2023/08/31 04:00:40;;;;;;;5.60;2.90;;;19.30;87.70;;;;;;5080878;28;20223;-72
2023/08/31 04:03:07;;;;;;;3.30;2.97;;;19.20;87.70;;;;;;5077487;28;20212;-72
2023/08/31 04:05:35;;;;;;;3.30;2.63;;;19.20;87.70;;;;;;5085568;28;20815;-70
2023/08/31 04:08:03;;;;;;;7.57;3.07;;;19.10;87.90;;;;;;5084515;28;20740;-72
2023/08/31 04:10:31;;;;;;;3.97;2.70;;;19.10;88.00;;;;;;5080902;28;20248;-72
2023/08/31 04:12:58;;;;;;;4.47;3.10;;;19.10;88.80;;;;;;5076053;28;20198;-72
2023/08/31 04:15:25;;;;;;;4.80;2.80;;;19.10;88.00;;;;;;5085508;28;20226;-72
2023/08/31 04:17:53;;;;;;;4.80;3.10;;;19.10;88.30;;;;;;5086013;28;20208;-72
2023/08/31 04:20:20;;;;;;;3.60;2.70;;;19.10;88.00;;;;;;5090831;28;20288;-71
2023/08/31 04:22:47;;;;;;;3.47;3.13;;;19.10;88.00;;;;;;5080992;28;20224;-73
2023/08/31 04:25:13;;;;;;;4.07;2.87;;;19.10;88.00;;;;;;5082230;28;20684;-72
2023/08/31 04:27:40;;;;;;;3.20;2.73;;;19.00;88.00;;;;;;5089885;28;20208;-72
2023/08/31 04:30:08;;;;;;;3.93;2.67;;;19.00;88.00;;;;;;5082643;28;20219;-72
2023/08/31 04:32:36;;;;;;;3.30;2.90;;;19.10;88.10;;;;;;5072900;28;20217;-73
2023/08/31 04:35:06;;;;;;;5.00;3.20;;;19.10;87.90;;;;;;5075219;28;20219;-72
2023/08/31 04:37:33;;;;;;;5.33;2.77;;;19.10;88.00;;;;;;5079008;28;22385;-72
2023/08/31 04:39:59;;;;;;;3.77;2.60;;;19.10;87.70;;;;;;5078455;28;20201;-72
2023/08/31 04:42:26;;;;;;;3.57;2.67;;;19.10;87.80;;;;;;5073634;28;20198;-71
2023/08/31 04:44:53;;;;;;;3.53;2.70;;;19.10;87.80;;;;;;5079937;28;20447;-71
2023/08/31 04:47:20;;;;;;;3.43;3.13;;;19.00;88.00;;;;;;5059893;28;20236;-72
2023/08/31 04:49:47;;;;;;;4.57;2.80;;;19.10;87.90;;;;;;5064645;28;20665;-72
2023/08/31 04:52:15;;;;;;;5.30;3.13;;;19.10;87.80;;;;;;5074717;28;20600;-71
2023/08/31 04:54:42;;;;;;;3.13;2.70;;;19.00;87.90;;;;;;5072423;28;20571;-72
2023/08/31 04:57:10;;;;;;;6.23;3.30;;;19.00;88.60;;;;;;5090573;28;20212;-72
2023/08/31 04:59:37;;;;;;;4.83;2.93;;;19.00;88.30;;;;;;5073418;28;20213;-73
2023/08/31 05:02:04;;;;;;;6.60;3.43;;;19.00;87.90;;;;;;5082888;28;20466;-72
2023/08/31 05:04:30;;;;;;;4.57;2.73;;;19.10;87.90;;;;;;5092709;28;20200;-72
2023/08/31 05:06:57;;;;;;;4.97;2.67;;;19.10;87.70;;;;;;5091700;28;20912;-72
2023/08/31 05:09:26;;;;;;;3.40;2.47;;;19.10;87.60;;;;;;5082414;28;20200;-72
2023/08/31 05:11:53;;;;;;;2.67;2.47;;;19.10;87.60;;;;;;5079776;28;20842;-72
2023/08/31 05:14:20;;;;;;;3.33;2.80;;;19.10;87.60;;;;;;5087790;28;20587;-72
2023/08/31 05:16:48;;;;;;;2.97;2.60;;;19.20;87.50;;;;;;5077521;28;20201;-73
2023/08/31 05:19:15;;;;;;;3.87;2.47;;;19.20;87.40;;;;;;5076882;28;20525;-72
2023/08/31 05:21:41;;;;;;;3.47;2.70;;;19.20;87.20;;;;;;5092172;28;20296;-73
2023/08/31 05:24:08;;;;;;;3.00;2.70;;;19.20;87.30;;;;;;5078568;28;20270;-72
2023/08/31 05:26:37;;;;;;;14.83;3.13;;;19.00;87.20;;;;;;5084002;28;20284;-72
2023/08/31 05:29:05;;;;;;;5.27;2.57;;;18.90;87.70;;;;;;5088382;28;20564;-72
2023/08/31 05:31:32;;;;;;;3.60;2.80;;;18.90;88.00;;;;;;5093711;28;20461;-71
2023/08/31 05:33:59;;;;;;;6.40;2.53;;;18.80;88.90;;;;;;5083893;28;20200;-72
2023/08/31 05:36:25;;;;;;;5.53;2.47;;;18.80;88.30;;;;;;5087755;28;20307;-71
2023/08/31 05:38:52;;;;;;;4.60;2.53;;;18.80;88.30;;;;;;5073318;28;20542;-71
2023/08/31 05:41:19;;;;;;;3.50;2.63;;;18.80;88.40;;;;;;5074351;28;20254;-71
2023/08/31 05:43:48;;;;;;;6.03;3.47;;;18.80;88.30;;;;;;5071737;28;20205;-71
2023/08/31 05:46:14;;;;;;;2.97;2.40;;;18.70;88.30;;;;;;5071334;28;20192;-72
2023/08/31 05:48:41;;;;;;;3.37;2.20;;;18.70;88.20;;;;;;5072977;28;20304;-72
2023/08/31 05:51:08;;;;;;;6.20;2.57;;;18.70;88.30;;;;;;5070731;28;20228;-72
2023/08/31 05:53:35;;;;;;;2.40;2.20;;;18.80;88.20;;;;;;5071344;28;20190;-71
2023/08/31 05:56:04;;;;;;;4.17;2.40;;;18.70;88.10;;;;;;5072645;28;20217;-72
2023/08/31 05:58:32;;;;;;;5.77;2.97;;;18.80;88.40;;;;;;5080205;28;20500;-71
2023/08/31 06:01:00;;;;;;;2.97;2.20;;;18.80;88.00;;;;;;5072659;28;20197;-72
2023/08/31 06:03:28;;;;;;;5.10;2.30;;;18.80;87.80;;;;;;5071577;28;20201;-72
2023/08/31 06:05:55;;;;;;;4.77;2.90;;;18.80;87.90;;;;;;5072335;28;20198;-72
2023/08/31 06:08:22;;;;;;;3.17;2.50;;;18.80;87.90;;;;;;5089735;28;20222;-72
2023/08/31 06:10:49;;;;;;;2.97;2.13;;;19.00;87.70;;;;;;5078928;28;20485;-71
2023/08/31 06:13:16;;;;;;;3.77;2.60;;;19.00;87.00;;;;;;5080480;28;20273;-71
2023/08/31 06:15:44;;;;;;;4.53;2.33;;;18.90;86.60;;;;;;5072079;28;20227;-70
2023/08/31 06:18:12;;;;;;;5.60;2.40;;;19.00;86.90;;;;;;5073284;28;20290;-72
2023/08/31 06:20:39;;;;;;;5.13;2.60;;;19.00;87.70;;;;;;5089477;28;20636;-71
2023/08/31 06:23:06;;;;;;;3.80;2.03;;;19.00;86.70;;;;;;5089221;28;20474;-71
2023/08/31 06:25:33;;;;;;;6.87;2.57;;;19.10;86.60;;;;;;5071612;28;20224;-71
2023/08/31 06:28:00;;;;;;;4.13;2.30;;;19.10;86.30;;;;;;5075723;28;20205;-71
2023/08/31 06:30:26;;;;;;;3.07;2.30;;;19.20;86.30;;;;;;5078099;28;20227;-71
2023/08/31 06:32:53;;;;;;;4.83;2.33;;;19.20;85.70;;;;;;5074147;28;20444;-70
2023/08/31 06:35:21;;;;;;;3.47;2.53;;;19.10;85.30;;;;;;5071128;28;20216;-71
2023/08/31 06:37:50;;;;;;;4.63;2.33;;;19.10;84.70;;;;;;5087735;28;20513;-71
2023/08/31 06:40:17;;;;;;;5.67;2.57;;;19.10;84.60;;;;;;5091352;28;20299;-71
2023/08/31 06:42:44;;;;;;;2.90;2.10;;;19.10;84.20;;;;;;5078881;28;20232;-71
2023/08/31 06:45:11;;;;;;;4.10;2.20;;;19.20;84.30;;;;;;5074674;28;20287;-71
2023/08/31 06:47:38;;;;;;;3.50;2.40;;;19.20;83.70;;;;;;5074927;28;20296;-71
2023/08/31 06:50:06;;;;;;;3.83;2.60;;;19.20;83.40;;;;;;5070919;28;20629;-71
2023/08/31 06:52:35;;;;;;;5.00;2.33;;;19.20;82.70;;;;;;5071264;28;20201;-72
2023/08/31 06:55:03;;;;;;;4.27;2.30;;;19.20;83.00;;;;;;5077653;28;20196;-72
2023/08/31 06:57:30;;;;;;;3.93;2.40;;;19.30;82.50;;;;;;5071711;28;20201;-71
2023/08/31 06:59:56;;;;;;;4.27;2.07;;;19.30;82.40;;;;;;5071138;28;20284;-72
2023/08/31 07:02:24;;;;;;;3.37;2.07;;;19.50;82.60;;;;;;5070911;28;20721;-72
2023/08/31 07:04:52;;;;;;;4.57;2.20;;;19.70;82.00;;;;;;5070933;28;20212;-71
2023/08/31 07:07:19;;;;;;;3.47;2.33;;;19.70;81.60;;;;;;5083052;28;20240;-72
2023/08/31 07:09:48;;;;;;;2.87;2.10;;;19.70;82.10;;;;;;5091199;28;20222;-71
2023/08/31 07:12:15;;;;;;;3.97;2.33;;;19.80;82.20;;;;;;5090701;28;20204;-72
2023/08/31 07:14:42;;;;;;;3.30;2.13;;;19.90;82.10;;;;;;5090846;28;20236;-72
2023/08/31 07:17:09;;;;;;;4.23;2.37;;;19.90;81.30;;;;;;5086875;28;20676;-71
2023/08/31 07:19:37;;;;;;;3.77;2.40;;;19.90;81.00;;;;;;5071779;28;20695;-72
2023/08/31 07:22:06;;;;;;;4.73;2.60;;;19.80;81.60;;;;;;5085329;28;20396;-72
2023/08/31 07:24:34;;;;;;;5.50;2.60;;;19.80;80.30;;;;;;5089653;28;20217;-71
2023/08/31 07:27:03;;;;;;;2.53;2.30;;;19.70;80.20;;;;;;5072328;28;20202;-71
2023/08/31 07:29:29;;;;;;;3.03;2.30;;;19.70;80.40;;;;;;5075164;28;20251;-72
2023/08/31 07:31:56;;;;;;;3.07;2.13;;;19.60;81.00;;;;;;5075076;28;20545;-71
2023/08/31 07:34:24;;;;;;;3.00;2.13;;;19.70;81.10;;;;;;5093804;28;20288;-70
2023/08/31 07:36:51;;;;;;;3.40;2.37;;;19.80;80.00;;;;;;5022520;28;20217;-71
2023/08/31 07:39:18;;;;;;;4.10;2.40;;;19.90;80.10;;;;;;5074651;28;20228;-71
2023/08/31 07:41:45;;;;;;;5.27;2.60;;;20.20;80.00;;;;;;5074766;28;20225;-71
2023/08/31 07:44:13;;;;;;;4.00;2.07;;;20.20;78.90;;;;;;5074636;28;20213;-71
2023/08/31 07:46:40;;;;;;;2.47;2.10;;;20.10;79.00;;;;;;5075986;28;20228;-71
2023/08/31 07:49:07;;;;;;;3.60;2.10;;;20.10;78.20;;;;;;5074606;28;20239;-71
2023/08/31 07:51:34;;;;;;;4.80;2.20;;;20.20;78.30;;;;;;5074684;28;20292;-71
2023/08/31 07:54:03;;;;;;;3.93;2.00;;;20.20;77.30;;;;;;5074853;28;20217;-71
2023/08/31 07:56:29;;;;;;;3.37;2.10;;;20.30;75.80;;;;;;5081302;28;20687;-71
2023/08/31 07:58:56;;;;;;;3.90;2.17;;;20.40;74.70;;;;;;5081229;28;20291;-71
2023/08/31 08:01:24;;;;;;;6.73;2.20;;;20.50;75.80;;;;;;5085215;28;20240;-71
2023/08/31 08:03:51;;;;;;;3.43;2.10;;;20.60;73.50;;;;;;5090259;28;20672;-71
2023/08/31 08:06:18;;;;;;;5.33;2.00;;;20.50;74.50;;;;;;5074171;28;20204;-71
2023/08/31 08:08:45;;;;;;;3.03;1.70;;;20.60;72.90;;;;;;5074591;28;20213;-71
2023/08/31 08:11:12;;;;;;;4.23;2.00;;;20.60;72.60;;;;;;5074503;28;20211;-71
2023/08/31 08:13:38;;;;;;;3.67;2.00;;;20.70;72.80;;;;;;5082454;28;20675;-71
2023/08/31 08:16:05;;;;;;;5.13;2.27;;;20.80;71.90;;;;;;5091656;28;20306;-71
2023/08/31 08:18:33;;;;;;;2.60;1.63;;;20.80;71.70;;;;;;5094164;28;20205;-71
2023/08/31 08:21:00;;;;;;;2.87;1.70;;;20.80;71.00;;;;;;5094781;28;20210;-72
2023/08/31 08:23:27;;;;;;;2.37;1.90;;;20.90;71.50;;;;;;5078394;28;20645;-71
2023/08/31 08:25:54;;;;;;;3.53;2.13;;;21.00;71.40;;;;;;5072988;28;20252;-72
2023/08/31 08:28:21;;;;;;;4.50;1.97;;;21.10;71.50;;;;;;5085371;28;20200;-71
2023/08/31 08:30:48;;;;;;;4.03;2.03;;;21.20;71.00;;;;;;5089040;28;20216;-70
2023/08/31 08:33:15;;;;;;;4.83;1.87;;;21.30;70.90;;;;;;5091325;28;20213;-71
2023/08/31 08:35:43;;;;;;;4.50;2.07;;;21.30;68.70;;;;;;5078829;28;20229;-71
2023/08/31 08:38:10;;;;;;;3.83;1.87;;;21.30;67.20;;;;;;5073559;28;20220;-71
2023/08/31 08:40:37;;;;;;;3.60;1.80;;;21.30;66.70;;;;;;5073316;28;20661;-71
2023/08/31 08:43:07;;;;;;;4.00;1.80;;;21.30;67.30;;;;;;5073239;28;20321;-70
2023/08/31 08:45:38;;;;;;;2.37;2.07;;;21.40;67.00;;;;;;5072411;28;20209;-71
2023/08/31 08:48:07;;;;;;;4.10;1.63;;;21.40;67.40;;;;;;5073670;28;20202;-71
2023/08/31 08:50:35;;;;;;;6.43;2.00;;;21.50;68.30;;;;;;5074007;28;20209;-71
2023/08/31 08:53:04;;;;;;;3.43;1.80;;;21.60;66.70;;;;;;5073299;28;20299;-72
2023/08/31 08:55:31;;;;;;;3.17;1.80;;;21.60;67.20;;;;;;5075657;28;20459;-72
2023/08/31 08:57:59;;;;;;;5.37;2.40;;;21.70;67.00;;;;;;5057168;28;20291;-71
2023/08/31 09:00:27;;;;;;;3.13;1.80;;;21.80;66.20;;;;;;5087371;28;20215;-72
2023/08/31 09:02:54;;;;;;;4.63;2.10;;;21.80;66.20;;;;;;5084619;28;20229;-72
2023/08/31 09:05:21;;;;;;;3.40;1.97;;;21.80;65.40;;;;;;5072871;28;20592;-71
2023/08/31 09:08:03;;;;;;;3.90;2.17;;;21.80;65.70;;;;;;5083638;28;20205;-71
2023/08/31 09:10:40;;;;;;;2.67;1.97;;;22.00;63.80;;;;;;5074027;28;20715;-71
2023/08/31 09:13:08;;;;;;;4.83;2.10;;;22.00;64.30;;;;;;5075976;28;20193;-72
2023/08/31 09:15:44;;;;;;;3.27;1.87;;;22.00;65.50;;;;;;5038054;28;20267;-72
2023/08/31 09:18:16;;;;;;;6.60;2.20;;;22.00;64.30;;;;;;5074530;28;20192;-72
2023/08/31 09:20:48;;;;;;;3.57;2.17;;;22.10;63.80;;;;;;5082479;28;20208;-72
2023/08/31 09:23:16;;;;;;;3.40;2.20;;;22.20;64.50;;;;;;5072790;28;20331;-71
2023/08/31 09:25:44;;;;;;;3.17;1.87;;;22.20;63.40;;;;;;5075517;28;20697;-71
2023/08/31 09:28:12;;;;;;;3.23;1.80;;;22.30;63.60;;;;;;5088788;28;20215;-71
2023/08/31 09:30:41;;;;;;;5.30;1.90;;;22.30;63.00;;;;;;5091363;28;20228;-71
2023/08/31 09:33:09;;;;;;;3.57;2.27;;;22.50;63.20;;;;;;5083372;28;20212;-71
2023/08/31 09:35:40;;;;;;;3.07;1.90;;;22.60;63.50;;;;;;5090459;28;20204;-71
2023/08/31 09:38:09;;;;;;;4.23;2.13;;;22.70;63.20;;;;;;5072318;28;20639;-71
2023/08/31 09:40:37;;;;;;;2.93;1.93;;;22.80;61.90;;;;;;5072430;28;20692;-72
2023/08/31 09:43:05;;;;;;;4.00;2.10;;;22.90;59.80;;;;;;5072247;28;20650;-71
2023/08/31 09:45:33;;;;;;;3.70;2.10;;;23.00;60.10;;;;;;5072178;28;20235;-72
2023/08/31 09:48:00;;;;;;;4.23;1.80;;;23.10;59.80;;;;;;5080082;28;20678;-71
2023/08/31 09:50:30;;;;;;;4.50;2.23;;;23.20;59.00;;;;;;5082601;28;20632;-72
2023/08/31 09:53:01;;;;;;;3.47;2.07;;;23.10;58.60;;;;;;5074502;28;20213;-72
2023/08/31 09:55:30;;;;;;;2.97;1.80;;;23.10;58.60;;;;;;5072478;28;20209;-72
2023/08/31 09:57:59;;;;;;;4.57;2.50;;;23.30;59.30;;;;;;5033738;28;20224;-71
2023/08/31 10:00:27;;;;;;;5.27;2.20;;;23.40;58.50;;;;;;5078625;28;20211;-72
2023/08/31 10:02:57;;;;;;;4.70;1.70;;;23.40;59.00;;;;;;5076504;28;20704;-72
2023/08/31 10:05:24;;;;;;;4.23;2.37;;;23.50;58.50;;;;;;5071780;28;20193;-72
2023/08/31 10:07:52;;;;;;;2.97;2.23;;;23.70;59.40;;;;;;5071841;28;20220;-72
2023/08/31 10:10:20;;;;;;;3.87;1.83;;;23.80;58.70;;;;;;5073004;28;20229;-72
2023/08/31 10:12:49;;;;;;;4.20;1.70;;;23.80;58.70;;;;;;5071900;28;20251;-72
2023/08/31 10:15:19;;;;;;;3.50;2.00;;;23.90;59.00;;;;;;5072714;28;20225;-71
2023/08/31 10:17:46;;;;;;;4.60;2.20;;;24.10;58.70;;;;;;5072917;28;20221;-71
2023/08/31 10:20:15;;;;;;;3.77;1.97;;;24.10;58.50;;;;;;5091827;28;20210;-71
2023/08/31 10:22:42;;;;;;;5.70;2.33;;;24.10;58.00;;;;;;5091945;28;20230;-71
2023/08/31 10:25:11;;;;;;;4.53;1.97;;;24.00;56.80;;;;;;5085825;28;20573;-72
2023/08/31 10:27:39;;;;;;;3.97;2.10;;;24.00;56.60;;;;;;5071274;28;20250;-71
2023/08/31 10:30:26;;;;;;;3.30;2.03;;;23.90;56.80;;;;;;5071787;28;20201;-72
2023/08/31 10:33:23;;;;;;;5.63;2.00;;;23.80;55.60;;;;;;5058977;28;20220;-72
2023/08/31 10:35:52;;;;;;;5.00;2.27;;;23.70;54.80;;;;;;5083194;28;20228;-72
2023/08/31 10:38:31;;;;;;;3.63;2.00;;;23.60;56.30;;;;;;5091250;28;20218;-72
2023/08/31 10:41:03;;;;;;;4.17;1.90;;;23.60;56.30;;;;;;5090810;28;20231;-70
2023/08/31 10:43:45;;;;;;;4.33;1.90;;;23.60;57.30;;;;;;5088870;28;20199;-72
2023/08/31 10:46:35;;;;;;;2.73;1.80;;;23.60;57.90;;;;;;5073885;28;20203;-71
2023/08/31 10:49:14;;;;;;;3.30;1.97;;;23.60;57.90;;;;;;5078171;28;20274;-71
2023/08/31 10:51:42;;;;;;;3.20;1.80;;;23.60;57.40;;;;;;5091323;28;20193;-71
2023/08/31 10:54:13;;;;;;;3.00;1.93;;;23.50;56.70;;;;;;5086968;28;20251;-69
2023/08/31 10:57:06;;;;;;;3.67;2.20;;;23.50;56.20;;;;;;5070389;28;20266;-71
2023/08/31 10:59:44;;;;;;;3.10;1.83;;;23.50;56.20;;;;;;5071073;28;20480;-71
2023/08/31 11:02:27;;;;;;;4.47;2.00;;;23.50;55.30;;;;;;5071026;28;20239;-70
2023/08/31 11:04:55;;;;;;;4.37;2.50;;;23.30;54.90;;;;;;5081399;28;20188;-71
2023/08/31 11:07:25;;;;;;;4.00;2.23;;;23.20;55.30;;;;;;5091694;28;20220;-72
2023/08/31 11:09:52;;;;;;;3.70;2.00;;;23.40;55.40;;;;;;5095171;28;20188;-72
2023/08/31 11:12:24;;;;;;;4.90;2.33;;;23.40;55.30;;;;;;5078366;28;20249;-72
2023/08/31 11:14:51;;;;;;;4.43;1.87;;;23.40;55.60;;;;;;5085151;28;20231;-71
2023/08/31 11:17:19;;;;;;;4.23;2.10;;;23.50;55.90;;;;;;5084053;28;20392;-74
2023/08/31 11:19:46;;;;;;;4.07;2.50;;;23.70;55.90;;;;;;5075013;28;20295;-71
2023/08/31 11:22:13;;;;;;;7.03;2.60;;;23.70;55.70;;;;;;5075576;28;20203;-71
2023/08/31 11:24:40;;;;;;;4.63;2.37;;;23.70;55.90;;;;;;5075637;28;20335;-71
2023/08/31 11:27:09;;;;;;;3.97;2.17;;;23.70;56.40;;;;;;5075567;28;20221;-71
2023/08/31 11:29:39;;;;;;;3.83;2.00;;;23.60;56.20;;;;;;5074871;28;20196;-70
2023/08/31 11:32:07;;;;;;;8.20;2.27;;;23.70;56.60;;;;;;5074821;28;20224;-71
2023/08/31 11:34:36;;;;;;;4.90;2.27;;;23.80;57.00;;;;;;5075568;28;20223;-73
2023/08/31 11:37:04;;;;;;;3.03;2.17;;;24.00;56.40;;;;;;5074947;28;20581;-72
2023/08/31 11:39:31;;;;;;;3.67;2.30;;;24.00;56.40;;;;;;5074152;28;20248;-73
2023/08/31 11:41:58;;;;;;;5.20;2.20;;;24.00;56.60;;;;;;5092894;28;20216;-73
2023/08/31 11:44:25;;;;;;;5.50;2.37;;;24.10;56.40;;;;;;5084829;28;20200;-73
2023/08/31 11:46:53;;;;;;;4.40;2.67;;;24.20;56.10;;;;;;5054091;28;20654;-73
2023/08/31 11:49:20;;;;;;;5.37;2.30;;;24.40;55.70;;;;;;5054163;28;20202;-73
2023/08/31 11:51:51;;;;;;;2.53;1.93;;;24.40;55.80;;;;;;5054972;28;20545;-75
2023/08/31 11:54:18;;;;;;;4.47;2.47;;;24.50;56.20;;;;;;5061370;28;20232;-72
2023/08/31 11:56:48;;;;;;;3.83;2.17;;;24.50;55.50;;;;;;5094812;28;20311;-72
2023/08/31 11:59:17;;;;;;;3.30;2.20;;;24.60;55.20;;;;;;5082033;28;20617;-73
2023/08/31 12:01:44;;;;;;;3.53;1.83;;;24.60;54.50;;;;;;5073815;28;20332;-72
2023/08/31 12:04:12;;;;;;;4.53;2.03;;;24.40;53.90;;;;;;5076864;28;20209;-72
2023/08/31 12:06:40;;;;;;;3.63;2.13;;;24.40;55.30;;;;;;5094151;28;20247;-72
2023/08/31 12:09:09;;;;;;;3.90;2.20;;;24.50;54.70;;;;;;5094272;28;20548;-72
2023/08/31 12:11:36;;;;;;;4.37;2.00;;;24.60;54.00;;;;;;5094269;28;20239;-72
2023/08/31 12:14:04;;;;;;;3.40;2.20;;;24.50;54.20;;;;;;5092480;28;20220;-72
2023/08/31 12:16:36;;;;;;;4.30;2.27;;;24.50;54.10;;;;;;5082157;28;20212;-72
2023/08/31 12:19:04;;;;;;;4.00;2.20;;;24.60;55.00;;;;;;5093139;28;20227;-72
2023/08/31 12:21:31;;;;;;;5.30;2.10;;;24.70;54.50;;;;;;5094861;28;20239;-72
2023/08/31 12:23:59;;;;;;;4.70;2.47;;;24.60;53.30;;;;;;5102424;28;20504;-72
2023/08/31 12:26:27;;;;;;;6.67;2.63;;;24.40;54.10;;;;;;5094519;28;20696;-72
2023/08/31 12:28:54;;;;;;;4.73;2.17;;;24.30;54.40;;;;;;5101444;28;20181;-72
2023/08/31 12:31:23;;;;;;;5.60;2.27;;;24.40;54.40;;;;;;5097924;28;20271;-73
2023/08/31 12:33:50;;;;;;;2.93;2.30;;;24.50;54.30;;;;;;5095581;28;20236;-73
2023/08/31 12:36:17;;;;;;;3.00;2.27;;;24.50;54.50;;;;;;5114061;28;20212;-73
2023/08/31 12:38:43;;;;;;;4.43;2.43;;;24.40;54.60;;;;;;5114706;28;20276;-73
2023/08/31 12:41:10;;;;;;;4.53;2.57;;;24.40;54.70;;;;;;5114140;28;20204;-73
2023/08/31 12:43:39;;;;;;;4.77;2.50;;;24.30;54.40;;;;;;5113760;28;20192;-73
2023/08/31 12:46:06;;;;;;;3.77;2.33;;;24.20;55.00;;;;;;5116285;28;20211;-73
2023/08/31 12:48:33;;;;;;;4.00;2.07;;;24.20;55.30;;;;;;5115879;28;20213;-72
2023/08/31 12:51:00;;;;;;;4.80;2.00;;;24.20;55.20;;;;;;5115640;28;20203;-73
2023/08/31 12:53:27;;;;;;;3.03;1.93;;;24.20;56.50;;;;;;5102434;28;20260;-72